Time;durP1;ratioP1;P1;durP2;ratioP2;P2;SDS_P1;SDS_P2;PMS_P1;PMS_P2;Temp;Humidity;BMP_temperature;BMP_pressure;BME280_temperature;BME280_humidity;BME280_pressure;Samples;Min_cycle;Max_cycle;Signal;HPM_P1;HPM_P2
2022/07/26 00:00:11;;;;;;;3.77;2.70;;;;;;;;;;4911705;28;20230;-71
2022/07/26 00:02:38;;;;;;;3.73;2.70;;;;;;;;;;5041103;28;20333;-71
2022/07/26 00:05:17;;;;;;;3.50;2.87;;;;;;;;;;5026761;28;20932;-71
2022/07/26 00:07:43;;;;;;;3.23;2.80;;;;;;;;;;5032022;28;20716;-71
2022/07/26 00:10:10;;;;;;;4.50;2.70;;;;;;;;;;5043959;28;20218;-72
2022/07/26 00:12:37;;;;;;;2.93;2.30;;;;;;;;;;5041411;28;20313;-71
2022/07/26 00:15:05;;;;;;;3.00;2.30;;;;;;;;;;5043044;28;20225;-71
2022/07/26 00:17:32;;;;;;;4.23;2.47;;;;;;;;;;5041801;28;20238;-71
2022/07/26 00:19:58;;;;;;;3.17;2.47;;;;;;;;;;5043154;28;20221;-72
2022/07/26 00:22:34;;;;;;;6.30;2.50;;;;;;;;;;5017230;28;20266;-71
2022/07/26 00:25:03;;;;;;;4.50;2.50;;;;;;;;;;5021505;28;22904;-71
2022/07/26 00:27:29;;;;;;;3.77;2.50;;;;;;;;;;4990632;28;20700;-71
2022/07/26 00:29:56;;;;;;;4.90;2.60;;;;;;;;;;5022193;28;20262;-71
2022/07/26 00:32:23;;;;;;;5.13;2.60;;;;;;;;;;5020720;28;20241;-72
2022/07/26 00:34:50;;;;;;;3.07;2.40;;;;;;;;;;5023700;28;20305;-71
2022/07/26 00:37:17;;;;;;;6.07;2.63;;;;;;;;;;5002835;28;20234;-71
2022/07/26 00:39:46;;;;;;;3.80;2.77;;;;;;;;;;5013025;28;20233;-71
2022/07/26 00:42:13;;;;;;;3.63;2.53;;;;;;;;;;5031181;28;20745;-72
2022/07/26 00:44:40;;;;;;;2.90;2.50;;;;;;;;;;5043891;28;20230;-72
2022/07/26 00:47:07;;;;;;;2.90;2.60;;;;;;;;;;5043532;28;20271;-71
2022/07/26 00:49:34;;;;;;;4.90;2.80;;;;;;;;;;5040137;28;20230;-72
2022/07/26 00:52:01;;;;;;;3.10;2.40;;;;;;;;;;5043131;28;20244;-71
2022/07/26 00:54:27;;;;;;;3.30;2.53;;;;;;;;;;5040583;28;20225;-72
2022/07/26 00:56:54;;;;;;;3.07;2.77;;;;;;;;;;5019286;28;20346;-71
2022/07/26 00:59:21;;;;;;;4.10;2.80;;;;;;;;;;4804738;28;5089610;-71
2022/07/26 01:01:48;;;;;;;3.07;2.53;;;;;;;;;;5022645;28;20586;-71
2022/07/26 01:04:15;;;;;;;3.80;2.53;;;;;;;;;;5020891;28;20223;-71
2022/07/26 01:06:41;;;;;;;3.43;2.67;;;;;;;;;;5023212;28;20230;-71
2022/07/26 01:09:08;;;;;;;3.23;2.60;;;;;;;;;;5024198;28;20630;-71
2022/07/26 01:11:35;;;;;;;3.03;2.60;;;;;;;;;;5003050;28;20227;-71
2022/07/26 01:14:01;;;;;;;4.70;3.23;;;;;;;;;;5020344;28;20261;-71
2022/07/26 01:16:28;;;;;;;4.70;2.50;;;;;;;;;;4991060;28;20275;-72
2022/07/26 01:18:55;;;;;;;8.23;2.63;;;;;;;;;;5042159;28;21042;-71
2022/07/26 01:21:22;;;;;;;5.87;3.17;;;;;;;;;;5040380;28;20225;-71
2022/07/26 01:23:49;;;;;;;3.93;2.77;;;;;;;;;;5029038;28;20230;-72
2022/07/26 01:26:15;;;;;;;4.27;2.80;;;;;;;;;;4979383;28;20784;-72
2022/07/26 01:28:45;;;;;;;4.50;2.80;;;;;;;;;;5042390;28;20308;-71
2022/07/26 01:31:12;;;;;;;3.60;2.57;;;;;;;;;;5040650;28;20632;-71
2022/07/26 01:33:39;;;;;;;3.87;3.00;;;;;;;;;;5025342;28;20225;-71
2022/07/26 01:36:06;;;;;;;3.23;2.93;;;;;;;;;;5040297;28;20221;-71
2022/07/26 01:38:33;;;;;;;3.47;2.90;;;;;;;;;;5024455;28;20764;-71
2022/07/26 01:41:00;;;;;;;3.43;2.70;;;;;;;;;;5039858;28;20226;-72
2022/07/26 01:43:26;;;;;;;3.10;2.53;;;;;;;;;;5010052;28;20242;-71
2022/07/26 01:45:54;;;;;;;3.70;2.93;;;;;;;;;;5039835;28;20929;-71
2022/07/26 01:48:21;;;;;;;3.53;2.70;;;;;;;;;;5040981;28;20249;-71
2022/07/26 01:50:48;;;;;;;5.80;3.07;;;;;;;;;;5040308;28;20218;-71
2022/07/26 01:53:14;;;;;;;5.27;2.80;;;;;;;;;;5041467;28;20232;-71
2022/07/26 01:55:41;;;;;;;3.77;3.03;;;;;;;;;;5020620;28;20638;-71
2022/07/26 01:58:08;;;;;;;4.40;2.83;;;;;;;;;;4988156;28;20239;-72
2022/07/26 02:00:34;;;;;;;3.30;3.00;;;;;;;;;;5002225;28;20226;-71
2022/07/26 02:03:01;;;;;;;5.10;3.10;;;;;;;;;;5021207;28;20238;-71
2022/07/26 02:05:28;;;;;;;3.17;2.80;;;;;;;;;;5019514;28;20238;-71
2022/07/26 02:08:12;;;;;;;3.70;2.70;;;;;;;;;;5028239;28;20236;-71
2022/07/26 02:13:42;;;;;;;4.50;2.93;;;;;;;;;;5037464;28;20218;-72
2022/07/26 02:16:12;;;;;;;3.30;2.70;;;;;;;;;;5023128;28;20697;-72
2022/07/26 02:18:39;;;;;;;5.40;3.00;;;;;;;;;;5038680;28;20234;-72
2022/07/26 02:21:06;;;;;;;3.43;2.87;;;;;;;;;;5041562;28;20230;-71
2022/07/26 02:23:33;;;;;;;4.17;2.93;;;;;;;;;;5038937;28;20268;-72
2022/07/26 02:26:00;;;;;;;3.80;2.87;;;;;;;;;;5040823;28;20229;-72
2022/07/26 02:28:27;;;;;;;4.80;3.07;;;;;;;;;;5031840;28;20229;-72
2022/07/26 02:30:53;;;;;;;6.37;3.57;;;;;;;;;;5030755;28;20228;-71
2022/07/26 02:33:22;;;;;;;3.33;2.80;;;;;;;;;;5038740;28;20236;-72
2022/07/26 02:36:06;;;;;;;4.13;3.33;;;;;;;;;;5023823;28;20297;-70
2022/07/26 02:38:33;;;;;;;4.43;3.10;;;;;;;;;;5040609;28;20685;-71
2022/07/26 02:41:18;;;;;;;5.87;3.43;;;;;;;;;;5037240;28;20220;-71
2022/07/26 02:43:44;;;;;;;7.00;3.40;;;;;;;;;;5041231;28;20295;-71
2022/07/26 02:46:29;;;;;;;4.13;3.10;;;;;;;;;;5037626;28;20221;-71
2022/07/26 02:48:56;;;;;;;3.80;3.37;;;;;;;;;;5040546;28;20233;-70
2022/07/26 02:51:23;;;;;;;5.43;3.03;;;;;;;;;;5032458;28;20228;-71
2022/07/26 02:53:50;;;;;;;4.60;3.17;;;;;;;;;;5027035;28;20225;-71
2022/07/26 02:56:17;;;;;;;5.27;3.33;;;;;;;;;;5027764;28;20312;-71
2022/07/26 02:58:44;;;;;;;3.70;3.30;;;;;;;;;;5023730;28;20590;-71
2022/07/26 03:01:11;;;;;;;3.90;3.50;;;;;;;;;;5009637;28;20224;-71
2022/07/26 03:03:39;;;;;;;4.37;3.40;;;;;;;;;;5020025;28;20238;-71
2022/07/26 03:06:05;;;;;;;5.47;4.30;;;;;;;;;;5039796;28;20234;-71
2022/07/26 03:08:32;;;;;;;6.13;4.33;;;;;;;;;;5039265;28;20588;-71
2022/07/26 03:10:59;;;;;;;4.47;3.50;;;;;;;;;;5024006;28;20684;-71
2022/07/26 03:13:26;;;;;;;4.67;3.70;;;;;;;;;;4982069;28;20222;-72
2022/07/26 03:15:53;;;;;;;3.67;3.30;;;;;;;;;;5024323;28;20648;-71
2022/07/26 03:18:19;;;;;;;5.10;3.20;;;;;;;;;;5019284;28;20234;-72
2022/07/26 03:20:48;;;;;;;4.00;3.37;;;;;;;;;;5040316;28;20253;-71
2022/07/26 03:23:15;;;;;;;7.03;3.73;;;;;;;;;;5004201;28;20226;-72
2022/07/26 03:25:42;;;;;;;4.67;3.80;;;;;;;;;;5022459;28;20283;-71
2022/07/26 03:28:09;;;;;;;5.53;3.60;;;;;;;;;;5038599;28;20224;-71
2022/07/26 03:30:40;;;;;;;5.03;3.77;;;;;;;;;;5037682;28;20218;-71
2022/07/26 03:33:07;;;;;;;10.13;3.90;;;;;;;;;;5040182;28;20632;-70
2022/07/26 03:35:33;;;;;;;9.27;4.90;;;;;;;;;;5038710;28;20224;-70
2022/07/26 03:38:02;;;;;;;6.97;4.70;;;;;;;;;;5038767;28;20253;-71
2022/07/26 03:40:29;;;;;;;8.30;4.80;;;;;;;;;;4971708;28;20224;-70
2022/07/26 03:42:56;;;;;;;6.80;4.40;;;;;;;;;;5000281;28;28765;-71
2022/07/26 03:45:22;;;;;;;7.43;5.07;;;;;;;;;;5020854;28;20229;-70
2022/07/26 03:47:49;;;;;;;9.70;5.33;;;;;;;;;;5018307;28;20231;-70
2022/07/26 03:50:16;;;;;;;8.13;5.57;;;;;;;;;;4957260;28;20358;-68
2022/07/26 03:52:43;;;;;;;9.10;5.33;;;;;;;;;;5007685;28;20235;-71
2022/07/26 03:57:55;;;;;;;8.30;5.63;;;;;;;;;;4997662;28;222399;-69
2022/07/26 04:00:23;;;;;;;8.23;5.47;;;;;;;;;;4959448;28;20685;-68
2022/07/26 04:02:50;;;;;;;8.77;5.97;;;;;;;;;;4981362;28;21416;-68
2022/07/26 04:05:17;;;;;;;6.80;5.90;;;;;;;;;;4991087;28;235529;-69
2022/07/26 04:07:49;;;;;;;6.77;5.70;;;;;;;;;;4979774;28;20598;-69
2022/07/26 04:10:33;;;;;;;6.23;5.40;;;;;;;;;;5002611;28;20219;-70
2022/07/26 04:13:01;;;;;;;7.07;5.80;;;;;;;;;;4976113;28;219067;-72
2022/07/26 04:15:28;;;;;;;7.07;5.97;;;;;;;;;;4981834;28;237099;-73
2022/07/26 04:17:54;;;;;;;8.70;5.90;;;;;;;;;;5003101;28;20250;-72
2022/07/26 04:20:24;;;;;;;8.33;6.03;;;;;;;;;;4970461;28;223578;-71
2022/07/26 04:22:51;;;;;;;8.13;6.93;;;;;;;;;;5012435;28;20236;-73
2022/07/26 04:25:18;;;;;;;9.10;7.10;;;;;;;;;;4979692;28;32219;-67
2022/07/26 04:27:45;;;;;;;11.43;7.37;;;;;;;;;;5004492;28;20318;-69
2022/07/26 04:30:11;;;;;;;12.23;7.97;;;;;;;;;;4965563;28;20312;-68
2022/07/26 04:32:41;;;;;;;9.30;7.63;;;;;;;;;;4978384;28;20246;-73
2022/07/26 04:35:09;;;;;;;11.03;7.60;;;;;;;;;;5003793;28;20227;-70
2022/07/26 04:37:40;;;;;;;11.33;7.73;;;;;;;;;;5003266;28;20300;-78
2022/07/26 04:40:07;;;;;;;11.40;8.87;;;;;;;;;;4944255;28;20235;-73
2022/07/26 04:42:34;;;;;;;10.63;8.20;;;;;;;;;;4990080;28;20327;-75
2022/07/26 04:45:02;;;;;;;10.90;8.57;;;;;;;;;;4967555;28;20234;-74
2022/07/26 04:47:34;;;;;;;12.43;8.50;;;;;;;;;;5006559;28;20228;-74
2022/07/26 04:50:02;;;;;;;10.03;8.67;;;;;;;;;;4986773;28;20229;-71
2022/07/26 04:52:28;;;;;;;9.70;8.50;;;;;;;;;;4980175;28;20234;-71
2022/07/26 04:54:55;;;;;;;10.90;7.97;;;;;;;;;;4984367;28;20237;-69
2022/07/26 04:57:22;;;;;;;12.13;8.30;;;;;;;;;;5001160;28;20382;-69
2022/07/26 04:59:49;;;;;;;12.33;8.20;;;;;;;;;;5002665;28;20263;-71
2022/07/26 05:02:37;;;;;;;9.00;7.57;;;;;;;;;;4991593;28;22351;-73
2022/07/26 05:05:04;;;;;;;9.47;8.00;;;;;;;;;;4955943;28;20248;-68
2022/07/26 05:07:49;;;;;;;8.60;6.57;;;;;;;;;;4982904;28;220231;-67
2022/07/26 05:10:16;;;;;;;10.70;7.30;;;;;;;;;;4992799;28;27887;-67
2022/07/26 05:13:02;;;;;;;9.33;7.30;;;;;;;;;;4984738;28;20665;-68
2022/07/26 05:15:32;;;;;;;11.83;7.33;;;;;;;;;;4937426;28;230218;-72
2022/07/26 05:18:02;;;;;;;11.37;7.43;;;;;;;;;;4952182;28;20288;-69
2022/07/26 05:20:33;;;;;;;8.13;6.90;;;;;;;;;;4995442;28;20224;-66
2022/07/26 05:23:01;;;;;;;7.73;6.83;;;;;;;;;;4990987;28;20641;-66
2022/07/26 05:25:28;;;;;;;8.33;7.07;;;;;;;;;;5011306;28;20235;-68
2022/07/26 05:27:54;;;;;;;8.70;7.27;;;;;;;;;;4996622;28;20233;-67
2022/07/26 05:30:21;;;;;;;8.60;7.03;;;;;;;;;;5011090;28;22962;-72
2022/07/26 05:32:48;;;;;;;9.27;7.13;;;;;;;;;;4994711;28;20231;-75
2022/07/26 05:35:15;;;;;;;9.73;7.60;;;;;;;;;;4991232;28;20227;-72
2022/07/26 05:37:42;;;;;;;9.63;6.60;;;;;;;;;;4968040;28;20230;-67
2022/07/26 05:40:09;;;;;;;9.43;6.70;;;;;;;;;;4992960;28;20262;-68
2022/07/26 05:42:36;;;;;;;6.20;5.57;;;;;;;;;;4978320;28;20697;-69
2022/07/26 05:45:03;;;;;;;5.60;4.83;;;;;;;;;;5006062;28;20246;-68
2022/07/26 05:47:30;;;;;;;6.23;4.50;;;;;;;;;;4995695;28;235084;-66
2022/07/26 05:50:00;;;;;;;5.40;4.40;;;;;;;;;;4968778;28;231545;-68
2022/07/26 05:52:27;;;;;;;7.60;4.20;;;;;;;;;;4970802;28;20231;-68
2022/07/26 05:54:55;;;;;;;6.67;4.13;;;;;;;;;;5001039;28;20235;-69
2022/07/26 05:57:22;;;;;;;8.27;4.70;;;;;;;;;;4995472;28;213037;-73
2022/07/26 05:59:48;;;;;;;5.80;4.40;;;;;;;;;;4978092;28;219210;-73
2022/07/26 06:02:15;;;;;;;6.00;4.33;;;;;;;;;;4958448;28;24523;-71
2022/07/26 06:04:42;;;;;;;5.93;4.70;;;;;;;;;;4992213;28;38673;-73
2022/07/26 06:07:13;;;;;;;6.32;4.93;;;;;;;;;;4831079;28;3145342;-73
2022/07/26 06:09:40;;;;;;;8.93;5.00;;;;;;;;;;5009593;28;20242;-71
2022/07/26 06:12:07;;;;;;;6.23;4.90;;;;;;;;;;4983940;28;20242;-69
2022/07/26 06:14:33;;;;;;;5.33;4.33;;;;;;;;;;5001313;28;26833;-80
2022/07/26 06:17:02;;;;;;;7.30;4.03;;;;;;;;;;4960678;28;32428;-72
2022/07/26 06:19:30;;;;;;;6.60;4.80;;;;;;;;;;4997883;28;214119;-74
2022/07/26 06:22:14;;;;;;;5.60;4.37;;;;;;;;;;5003851;28;20929;-73
2022/07/26 06:24:41;;;;;;;9.63;4.67;;;;;;;;;;4989443;28;255186;-75
2022/07/26 06:27:08;;;;;;;7.90;4.47;;;;;;;;;;4973121;28;20238;-72
2022/07/26 06:29:35;;;;;;;4.77;4.00;;;;;;;;;;4929601;28;641467;-77
2022/07/26 06:32:02;;;;;;;5.43;4.43;;;;;;;;;;5004317;28;20237;-74
2022/07/26 06:34:29;;;;;;;6.93;4.33;;;;;;;;;;4944840;28;233528;-76
2022/07/26 06:36:57;;;;;;;5.80;4.13;;;;;;;;;;4991027;28;20308;-74
2022/07/26 06:39:24;;;;;;;5.50;3.97;;;;;;;;;;4984493;28;20230;-75
2022/07/26 06:41:51;;;;;;;4.90;3.90;;;;;;;;;;4782983;28;5090977;-74
2022/07/26 06:44:21;;;;;;;5.73;4.03;;;;;;;;;;4976860;28;20779;-78
2022/07/26 06:46:49;;;;;;;5.35;3.88;;;;;;;;;;4953773;28;245136;-79
2022/07/26 06:49:16;;;;;;;6.10;3.83;;;;;;;;;;4970332;28;20229;-73
2022/07/26 06:51:49;;;;;;;5.30;3.63;;;;;;;;;;4959483;28;28143;-74
2022/07/26 06:54:16;;;;;;;5.07;3.87;;;;;;;;;;4961263;28;20594;-74
2022/07/26 06:56:43;;;;;;;6.23;4.23;;;;;;;;;;4964570;28;20620;-73
2022/07/26 06:59:10;;;;;;;6.80;4.47;;;;;;;;;;4962239;28;20233;-73
2022/07/26 07:01:36;;;;;;;6.40;4.20;;;;;;;;;;4976852;28;20224;-74
2022/07/26 07:04:23;;;;;;;7.80;4.67;;;;;;;;;;4928302;28;232439;-82
2022/07/26 07:06:52;;;;;;;6.07;4.70;;;;;;;;;;4967996;28;261356;-81
2022/07/26 07:09:20;;;;;;;5.43;3.97;;;;;;;;;;4958809;28;223041;-70
2022/07/26 07:11:48;;;;;;;5.83;3.97;;;;;;;;;;4941089;28;22102;-71
2022/07/26 07:14:24;;;;;;;8.50;4.83;;;;;;;;;;4955511;28;232977;-72
2022/07/26 07:16:51;;;;;;;7.37;4.30;;;;;;;;;;5003928;28;20230;-70
2022/07/26 07:19:18;;;;;;;7.47;4.33;;;;;;;;;;4984420;28;20245;-71
2022/07/26 07:21:45;;;;;;;6.30;4.10;;;;;;;;;;4972911;28;228644;-71
2022/07/26 07:24:12;;;;;;;7.13;3.90;;;;;;;;;;5010435;28;27927;-73
2022/07/26 07:26:39;;;;;;;7.07;3.93;;;;;;;;;;4956354;28;238791;-78
2022/07/26 07:29:06;;;;;;;6.63;4.00;;;;;;;;;;4971159;28;217920;-75
2022/07/26 07:31:33;;;;;;;6.23;3.50;;;;;;;;;;4932560;28;219604;-76
2022/07/26 07:34:15;;;;;;;8.93;3.70;;;;;;;;;;4988147;28;22327;-75
2022/07/26 07:36:43;;;;;;;5.10;3.07;;;;;;;;;;4918623;28;275960;-75
2022/07/26 07:39:27;;;;;;;6.33;3.77;;;;;;;;;;4964342;28;232271;-73
2022/07/26 07:42:04;;;;;;;6.57;3.53;;;;;;;;;;4990800;28;20234;-72
2022/07/26 07:44:31;;;;;;;7.53;3.90;;;;;;;;;;4994094;28;20329;-77
2022/07/26 07:46:58;;;;;;;7.27;3.57;;;;;;;;;;4950340;28;22817;-72
2022/07/26 07:49:24;;;;;;;6.30;3.40;;;;;;;;;;4972806;28;256194;-74
2022/07/26 07:51:53;;;;;;;6.93;3.43;;;;;;;;;;4932123;28;240324;-76
2022/07/26 07:54:20;;;;;;;6.90;3.30;;;;;;;;;;4956277;28;221287;-74
2022/07/26 07:56:48;;;;;;;9.87;3.63;;;;;;;;;;4905946;28;236802;-74
2022/07/26 07:59:15;;;;;;;9.03;3.43;;;;;;;;;;4953102;28;236349;-77
2022/07/26 08:01:42;;;;;;;7.53;3.30;;;;;;;;;;4954032;28;238453;-78
2022/07/26 08:04:10;;;;;;;7.63;4.00;;;;;;;;;;4985339;28;220149;-74
2022/07/26 08:06:41;;;;;;;4.70;3.23;;;;;;;;;;4975840;28;24497;-78
2022/07/26 08:09:15;;;;;;;6.13;2.73;;;;;;;;;;4990293;28;20230;-78
2022/07/26 08:11:43;;;;;;;6.37;2.60;;;;;;;;;;4964202;28;27637;-78
2022/07/26 08:14:10;;;;;;;5.83;2.70;;;;;;;;;;5007159;28;20227;-61
2022/07/26 08:16:38;;;;;;;4.80;2.43;;;;;;;;;;4977843;28;42348;-75
2022/07/26 08:19:17;;;;;;;7.70;3.07;;;;;;;;;;4911045;28;233492;-75
2022/07/26 08:22:07;;;;;;;6.53;2.70;;;;;;;;;;4947915;28;232753;-76
2022/07/26 08:24:34;;;;;;;5.07;2.57;;;;;;;;;;4935090;28;248380;-68
2022/07/26 08:27:01;;;;;;;5.80;3.10;;;;;;;;;;4990811;28;22234;-68
2022/07/26 08:29:30;;;;;;;6.37;2.80;;;;;;;;;;5013596;28;20307;-70
2022/07/26 08:32:06;;;;;;;6.43;3.10;;;;;;;;;;4991017;28;20234;-68
2022/07/26 08:34:33;;;;;;;5.00;2.30;;;;;;;;;;5019115;28;20226;-68
2022/07/26 08:37:17;;;;;;;4.20;2.20;;;;;;;;;;5021860;28;20225;-68
2022/07/26 08:39:45;;;;;;;4.43;2.60;;;;;;;;;;5020983;28;20238;-70
2022/07/26 08:42:13;;;;;;;4.93;2.43;;;;;;;;;;5017684;28;20755;-69
2022/07/26 08:44:43;;;;;;;3.90;1.87;;;;;;;;;;5012896;28;20241;-75
2022/07/26 08:47:11;;;;;;;6.00;2.43;;;;;;;;;;5031643;28;20234;-69
2022/07/26 08:49:39;;;;;;;3.47;2.30;;;;;;;;;;4943504;28;23628;-70
2022/07/26 08:52:06;;;;;;;3.57;2.13;;;;;;;;;;4985394;28;20724;-70
2022/07/26 08:54:52;;;;;;;6.07;1.90;;;;;;;;;;4977110;28;20606;-69
2022/07/26 08:57:21;;;;;;;4.07;1.90;;;;;;;;;;5015737;28;20234;-69
2022/07/26 09:00:09;;;;;;;5.07;2.27;;;;;;;;;;5002953;28;20242;-68
2022/07/26 09:02:38;;;;;;;4.03;1.77;;;;;;;;;;4959754;28;21976;-71
2022/07/26 09:05:35;;;;;;;2.77;1.60;;;;;;;;;;5001839;28;20219;-70
2022/07/26 09:08:20;;;;;;;7.83;2.17;;;;;;;;;;4965879;28;20246;-70
2022/07/26 09:11:23;;;;;;;3.90;1.60;;;;;;;;;;4992269;28;20328;-70
2022/07/26 09:13:57;;;;;;;3.80;2.00;;;;;;;;;;4983428;28;20234;-70
2022/07/26 09:16:24;;;;;;;4.37;1.73;;;;;;;;;;4990556;28;23157;-69
2022/07/26 09:18:51;;;;;;;6.60;1.90;;;;;;;;;;4978515;28;27096;-68
2022/07/26 09:21:25;;;;;;;4.60;1.90;;;;;;;;;;5003663;28;20693;-72
2022/07/26 09:23:53;;;;;;;5.43;1.83;;;;;;;;;;5003288;28;20233;-70
2022/07/26 09:26:22;;;;;;;3.03;1.40;;;;;;;;;;5017040;28;20231;-70
2022/07/26 09:29:04;;;;;;;3.10;1.63;;;;;;;;;;4999407;28;20257;-69
2022/07/26 09:31:32;;;;;;;3.10;1.73;;;;;;;;;;5001823;28;20227;-71
2022/07/26 09:33:59;;;;;;;4.00;1.60;;;;;;;;;;5013356;28;20567;-71
2022/07/26 09:36:26;;;;;;;5.70;1.90;;;;;;;;;;4973837;28;20572;-70
2022/07/26 09:38:54;;;;;;;3.93;1.80;;;;;;;;;;5008194;28;20238;-70
2022/07/26 09:41:34;;;;;;;2.57;1.60;;;;;;;;;;5010593;28;20251;-71
2022/07/26 09:44:01;;;;;;;4.90;1.97;;;;;;;;;;4992355;28;215145;-69
2022/07/26 09:46:29;;;;;;;3.33;1.70;;;;;;;;;;5006666;28;20238;-69
2022/07/26 09:48:59;;;;;;;4.40;1.90;;;;;;;;;;4975085;28;232482;-70
2022/07/26 09:51:39;;;;;;;3.33;1.50;;;;;;;;;;4995183;28;20318;-68
2022/07/26 09:54:08;;;;;;;3.20;1.70;;;;;;;;;;4962488;28;20229;-69
2022/07/26 09:56:40;;;;;;;2.33;1.47;;;;;;;;;;4978695;28;25757;-68
2022/07/26 09:59:08;;;;;;;3.37;1.40;;;;;;;;;;5018734;28;20235;-69
2022/07/26 10:01:35;;;;;;;3.13;1.60;;;;;;;;;;5009417;28;21131;-69
2022/07/26 10:04:02;;;;;;;4.70;1.80;;;;;;;;;;5000871;28;33549;-70
2022/07/26 10:06:28;;;;;;;3.20;1.60;;;;;;;;;;5003692;28;20306;-70
2022/07/26 10:08:56;;;;;;;3.97;1.70;;;;;;;;;;5022383;28;20604;-69
2022/07/26 10:11:24;;;;;;;3.63;1.40;;;;;;;;;;4993359;28;20706;-70
2022/07/26 10:13:53;;;;;;;5.27;1.40;;;;;;;;;;4997560;28;20238;-70
2022/07/26 10:16:30;;;;;;;5.10;1.70;;;;;;;;;;4998300;28;20300;-69
2022/07/26 10:18:58;;;;;;;3.47;1.47;;;;;;;;;;4992643;28;20725;-72
2022/07/26 10:21:28;;;;;;;4.73;1.40;;;;;;;;;;4982581;28;23689;-70
2022/07/26 10:24:01;;;;;;;2.20;1.40;;;;;;;;;;4986062;28;20227;-71
2022/07/26 10:26:31;;;;;;;2.60;1.50;;;;;;;;;;4960599;28;20223;-70
2022/07/26 10:29:16;;;;;;;3.17;1.37;;;;;;;;;;4990687;28;20223;-70
2022/07/26 10:32:09;;;;;;;3.17;1.60;;;;;;;;;;5014933;28;20234;-67
2022/07/26 10:34:37;;;;;;;3.50;1.40;;;;;;;;;;4983171;28;219150;-71
2022/07/26 10:37:04;;;;;;;2.80;1.20;;;;;;;;;;5014377;28;20238;-70
2022/07/26 10:39:31;;;;;;;2.93;1.50;;;;;;;;;;4984922;28;232831;-70
2022/07/26 10:41:59;;;;;;;2.73;1.37;;;;;;;;;;5007768;28;20238;-70
2022/07/26 10:44:44;;;;;;;3.60;1.27;;;;;;;;;;4998218;28;20221;-70
2022/07/26 10:47:14;;;;;;;2.43;1.20;;;;;;;;;;5002710;28;20358;-69
2022/07/26 10:49:58;;;;;;;4.00;1.33;;;;;;;;;;5010410;28;31768;-69
2022/07/26 10:52:26;;;;;;;2.10;1.13;;;;;;;;;;5017664;28;20223;-69
2022/07/26 10:55:10;;;;;;;4.07;1.30;;;;;;;;;;4991154;28;20279;-70
2022/07/26 10:57:38;;;;;;;3.33;1.30;;;;;;;;;;5024805;28;20239;-70
2022/07/26 11:00:25;;;;;;;2.83;1.10;;;;;;;;;;5017891;28;20616;-68
2022/07/26 11:02:54;;;;;;;2.50;0.97;;;;;;;;;;5001178;28;31095;-68
2022/07/26 11:05:24;;;;;;;2.20;1.07;;;;;;;;;;5016524;28;20249;-69
2022/07/26 11:07:52;;;;;;;2.50;1.00;;;;;;;;;;4962250;28;20242;-70
2022/07/26 11:10:33;;;;;;;2.33;1.20;;;;;;;;;;5014276;28;20214;-69
2022/07/26 11:13:07;;;;;;;1.50;1.13;;;;;;;;;;4999458;28;20292;-70
2022/07/26 11:15:35;;;;;;;1.97;1.10;;;;;;;;;;5020281;28;20301;-70
2022/07/26 11:18:09;;;;;;;2.27;1.30;;;;;;;;;;4992076;28;20234;-70
2022/07/26 11:20:36;;;;;;;1.70;1.20;;;;;;;;;;5008294;28;20243;-69
2022/07/26 11:23:24;;;;;;;1.37;1.07;;;;;;;;;;5013074;28;20226;-68
2022/07/26 11:26:07;;;;;;;2.80;1.00;;;;;;;;;;5005103;28;20309;-70
2022/07/26 11:28:54;;;;;;;2.00;0.97;;;;;;;;;;4988825;28;20237;-70
2022/07/26 11:31:23;;;;;;;1.93;1.00;;;;;;;;;;5004308;28;20244;-69
2022/07/26 11:34:19;;;;;;;2.37;1.03;;;;;;;;;;4976881;28;214747;-73
2022/07/26 11:36:46;;;;;;;2.00;0.90;;;;;;;;;;5005135;28;20227;-70
2022/07/26 11:39:31;;;;;;;3.30;1.00;;;;;;;;;;5026817;28;20224;-70
2022/07/26 11:42:05;;;;;;;1.93;0.90;;;;;;;;;;5020567;28;20231;-69
2022/07/26 11:44:32;;;;;;;2.10;1.10;;;;;;;;;;5004575;28;20238;-68
2022/07/26 11:46:59;;;;;;;2.10;0.80;;;;;;;;;;5015730;28;29478;-67
2022/07/26 11:49:28;;;;;;;1.83;0.80;;;;;;;;;;4984052;28;20226;-68
2022/07/26 11:52:15;;;;;;;1.83;1.00;;;;;;;;;;5017451;28;20614;-67
2022/07/26 11:54:51;;;;;;;0.97;0.80;;;;;;;;;;4984758;28;20230;-68
2022/07/26 11:57:17;;;;;;;1.60;0.77;;;;;;;;;;5019823;28;20313;-67
2022/07/26 11:59:45;;;;;;;2.50;0.97;;;;;;;;;;5016009;28;26090;-67
2022/07/26 12:02:12;;;;;;;5.43;0.90;;;;;;;;;;4991855;28;24148;-68
2022/07/26 12:04:39;;;;;;;1.77;0.80;;;;;;;;;;5015024;28;20321;-68
2022/07/26 12:07:09;;;;;;;1.83;0.83;;;;;;;;;;5012285;28;20249;-71
2022/07/26 12:09:36;;;;;;;3.17;0.87;;;;;;;;;;5029729;28;20232;-68
2022/07/26 12:12:11;;;;;;;2.87;0.90;;;;;;;;;;4995680;28;20568;-67
2022/07/26 12:14:38;;;;;;;1.30;0.80;;;;;;;;;;5009015;28;20355;-68
2022/07/26 12:17:14;;;;;;;2.50;0.97;;;;;;;;;;4998943;28;20331;-67
2022/07/26 12:19:43;;;;;;;2.97;0.90;;;;;;;;;;5016777;28;20218;-68
2022/07/26 12:22:11;;;;;;;3.83;0.80;;;;;;;;;;5020383;28;20229;-69
2022/07/26 12:24:42;;;;;;;1.73;0.80;;;;;;;;;;4979960;28;20238;-69
2022/07/26 12:27:30;;;;;;;2.53;0.90;;;;;;;;;;5000579;28;20275;-69
2022/07/26 12:30:00;;;;;;;2.97;0.83;;;;;;;;;;5029973;28;20236;-69
2022/07/26 12:32:30;;;;;;;2.40;0.90;;;;;;;;;;5020418;28;20246;-72
2022/07/26 12:35:06;;;;;;;3.00;1.20;;;;;;;;;;5020207;28;20222;-69
2022/07/26 12:37:36;;;;;;;2.10;0.90;;;;;;;;;;5025595;28;20226;-68
2022/07/26 12:40:08;;;;;;;2.30;0.90;;;;;;;;;;5003444;28;20226;-68
2022/07/26 12:42:38;;;;;;;2.53;1.10;;;;;;;;;;4999779;28;20253;-69
2022/07/26 12:45:07;;;;;;;2.00;1.10;;;;;;;;;;5005964;28;23489;-68
2022/07/26 12:47:34;;;;;;;2.50;0.90;;;;;;;;;;5024735;28;20293;-68
2022/07/26 12:50:04;;;;;;;2.43;0.90;;;;;;;;;;5020271;28;20253;-72
2022/07/26 12:52:32;;;;;;;1.57;0.80;;;;;;;;;;5022379;28;20309;-68
2022/07/26 12:54:59;;;;;;;2.43;0.80;;;;;;;;;;5029807;28;20249;-68
2022/07/26 12:57:26;;;;;;;2.23;0.80;;;;;;;;;;5029116;28;20303;-68
2022/07/26 12:59:54;;;;;;;1.93;0.83;;;;;;;;;;5001836;28;20306;-68
2022/07/26 13:02:21;;;;;;;2.43;1.00;;;;;;;;;;5021659;28;20321;-68
2022/07/26 13:04:48;;;;;;;2.60;1.27;;;;;;;;;;5020291;28;31986;-68
2022/07/26 13:07:16;;;;;;;2.73;0.80;;;;;;;;;;5020415;28;20234;-71
2022/07/26 13:09:43;;;;;;;3.57;0.90;;;;;;;;;;5006272;28;20222;-68
2022/07/26 13:12:11;;;;;;;2.13;1.10;;;;;;;;;;5011737;28;20242;-68
2022/07/26 13:14:38;;;;;;;3.03;0.97;;;;;;;;;;5007052;28;20751;-69
2022/07/26 13:17:05;;;;;;;1.73;1.00;;;;;;;;;;5015026;28;20567;-67
2022/07/26 13:19:32;;;;;;;3.13;0.90;;;;;;;;;;4987665;28;20239;-68
2022/07/26 13:21:59;;;;;;;2.90;1.00;;;;;;;;;;5023345;28;20247;-68
2022/07/26 13:24:26;;;;;;;3.97;1.23;;;;;;;;;;5000001;28;20241;-68
2022/07/26 13:26:54;;;;;;;2.87;0.80;;;;;;;;;;5019827;28;20254;-71
2022/07/26 13:29:21;;;;;;;2.00;1.00;;;;;;;;;;5015558;28;20230;-68
2022/07/26 13:31:52;;;;;;;1.83;1.03;;;;;;;;;;5031036;28;20705;-68
2022/07/26 13:34:37;;;;;;;1.90;1.00;;;;;;;;;;5009369;28;20777;-68
2022/07/26 13:37:04;;;;;;;3.00;1.00;;;;;;;;;;5014214;28;20762;-69
2022/07/26 13:39:34;;;;;;;1.97;0.90;;;;;;;;;;5004638;28;223030;-71
2022/07/26 13:42:01;;;;;;;2.03;1.03;;;;;;;;;;5003700;28;20234;-69
2022/07/26 13:44:27;;;;;;;2.73;1.10;;;;;;;;;;5031457;28;20327;-68
2022/07/26 13:46:54;;;;;;;1.50;0.90;;;;;;;;;;5019568;28;20242;-68
2022/07/26 13:49:22;;;;;;;2.33;1.03;;;;;;;;;;5022218;28;20594;-69
2022/07/26 13:51:58;;;;;;;2.63;1.23;;;;;;;;;;5004893;28;20368;-69
2022/07/26 13:54:24;;;;;;;1.73;0.97;;;;;;;;;;4983539;28;20223;-70
2022/07/26 13:56:52;;;;;;;4.03;1.10;;;;;;;;;;4992319;28;22163;-70
2022/07/26 13:59:18;;;;;;;3.27;1.17;;;;;;;;;;4974939;28;20331;-69
2022/07/26 14:01:46;;;;;;;3.83;1.07;;;;;;;;;;4995895;28;20235;-69
2022/07/26 14:04:13;;;;;;;3.27;1.37;;;;;;;;;;4999373;28;20277;-69
2022/07/26 14:06:40;;;;;;;4.50;1.30;;;;;;;;;;5008903;28;25834;-69
2022/07/26 14:09:08;;;;;;;2.93;1.10;;;;;;;;;;4996028;28;20238;-69
2022/07/26 14:11:36;;;;;;;2.17;1.13;;;;;;;;;;4985034;28;21081;-70
2022/07/26 14:14:22;;;;;;;3.33;1.03;;;;;;;;;;4973536;28;20223;-71
2022/07/26 14:16:49;;;;;;;3.03;1.10;;;;;;;;;;5000430;28;24265;-70
2022/07/26 14:19:16;;;;;;;1.83;0.90;;;;;;;;;;4984756;28;20234;-72
2022/07/26 14:21:43;;;;;;;3.40;0.90;;;;;;;;;;5000828;28;20253;-70
2022/07/26 14:24:26;;;;;;;1.27;1.00;;;;;;;;;;4989909;28;224439;-66
2022/07/26 14:26:53;;;;;;;2.77;1.00;;;;;;;;;;5002111;28;20219;-65
2022/07/26 14:29:25;;;;;;;1.67;0.90;;;;;;;;;;4982769;28;20235;-65
2022/07/26 14:31:52;;;;;;;2.17;0.83;;;;;;;;;;4996733;28;20568;-71
2022/07/26 14:34:19;;;;;;;2.43;0.90;;;;;;;;;;4999099;28;20721;-70
2022/07/26 14:36:46;;;;;;;2.40;0.83;;;;;;;;;;4997169;28;20768;-70
2022/07/26 14:39:13;;;;;;;2.63;1.13;;;;;;;;;;4989167;28;20243;-70
2022/07/26 14:41:40;;;;;;;4.63;1.20;;;;;;;;;;5009896;28;20685;-69
2022/07/26 14:44:07;;;;;;;1.97;0.80;;;;;;;;;;4995983;28;20749;-70
2022/07/26 14:46:35;;;;;;;4.27;1.13;;;;;;;;;;4999453;28;20326;-70
2022/07/26 14:49:02;;;;;;;2.93;0.90;;;;;;;;;;4995026;28;20812;-69
2022/07/26 14:51:29;;;;;;;2.00;1.07;;;;;;;;;;4992255;28;20353;-69
2022/07/26 14:53:56;;;;;;;2.27;0.90;;;;;;;;;;4994511;28;20231;-69
2022/07/26 14:56:23;;;;;;;2.77;1.10;;;;;;;;;;5006422;28;20249;-70
2022/07/26 14:58:51;;;;;;;2.20;0.80;;;;;;;;;;5002490;28;23091;-70
2022/07/26 15:01:18;;;;;;;2.90;1.00;;;;;;;;;;5028534;28;20237;-69